createdAt,value
2023-05-19T00:01:01.845Z,3.55
2023-05-19T00:03:29.236Z,4.30
2023-05-19T00:05:58.789Z,3.83
2023-05-19T00:08:26.730Z,4.15
2023-05-19T00:10:54.870Z,3.80
2023-05-19T00:13:23.448Z,3.80
2023-05-19T00:15:56.222Z,3.60
2023-05-19T00:18:23.481Z,3.72
2023-05-19T00:20:51.583Z,3.80
2023-05-19T00:23:18.455Z,4.00
2023-05-19T00:25:48.417Z,4.05
2023-05-19T00:28:15.222Z,4.20
2023-05-19T00:30:45.340Z,4.05
2023-05-19T00:33:12.561Z,3.92
2023-05-19T00:35:40.960Z,4.60
2023-05-19T00:38:07.927Z,3.88
2023-05-19T00:40:36.903Z,4.03
2023-05-19T00:43:05.809Z,4.40
2023-05-19T00:45:32.730Z,4.03
2023-05-19T00:48:18.133Z,3.67
2023-05-19T00:50:49.886Z,3.70
2023-05-19T00:53:21.862Z,3.63
2023-05-19T00:56:09.622Z,4.18
2023-05-19T00:58:37.740Z,3.50
2023-05-19T01:01:05.384Z,3.25
2023-05-19T01:03:37.349Z,3.65
2023-05-19T01:06:08.965Z,3.58
2023-05-19T01:08:37.689Z,4.05
2023-05-19T01:11:07.171Z,3.22
2023-05-19T01:13:35.277Z,3.53
2023-05-19T01:16:12.889Z,3.35
2023-05-19T01:18:57.076Z,3.30
2023-05-19T01:21:45.898Z,3.28
2023-05-19T01:24:39.530Z,3.17
2023-05-19T01:27:27.428Z,3.55
2023-05-19T01:30:34.039Z,3.00
2023-05-19T01:33:03.630Z,3.33
2023-05-19T01:35:31.381Z,3.20
2023-05-19T01:38:00.672Z,3.42
2023-05-19T01:40:29.356Z,3.55
2023-05-19T01:42:58.334Z,3.65
2023-05-19T01:45:27.211Z,3.90
2023-05-19T01:47:58.973Z,3.50
2023-05-19T01:50:27.520Z,4.28
2023-05-19T01:52:55.194Z,3.38
2023-05-19T01:55:24.170Z,3.67
2023-05-19T01:57:51.129Z,3.88
2023-05-19T02:00:31.771Z,3.40
2023-05-19T02:03:01.906Z,3.25
2023-05-19T02:06:02.571Z,3.28
2023-05-19T02:08:47.958Z,4.43
2023-05-19T02:11:26.277Z,4.28
2023-05-19T02:13:57.163Z,3.80
2023-05-19T02:16:29.428Z,3.78
2023-05-19T02:18:59.857Z,4.10
2023-05-19T02:21:27.037Z,3.53
2023-05-19T02:24:06.830Z,3.50
2023-05-19T02:26:37.162Z,2.60
2023-05-19T02:29:04.288Z,3.40
2023-05-19T02:31:31.240Z,2.90
2023-05-19T02:34:00.037Z,3.90
2023-05-19T02:36:30.834Z,2.97
2023-05-19T02:38:58.744Z,3.10
2023-05-19T02:41:26.334Z,3.05
2023-05-19T02:43:53.388Z,4.00
2023-05-19T02:46:20.851Z,3.50
2023-05-19T02:48:54.057Z,3.50
2023-05-19T02:51:25.230Z,3.10
2023-05-19T02:53:52.246Z,3.10
2023-05-19T02:56:23.038Z,3.00
2023-05-19T02:58:51.077Z,2.95
2023-05-19T03:01:17.937Z,3.45
2023-05-19T03:03:45.087Z,3.38
2023-05-19T03:06:14.465Z,3.70
2023-05-19T03:08:42.403Z,2.88
2023-05-19T03:11:09.453Z,3.00
2023-05-19T03:13:39.412Z,4.25
2023-05-19T03:16:10.675Z,2.90
2023-05-19T03:18:38.560Z,3.17
2023-05-19T03:21:06.308Z,4.18
2023-05-19T03:23:33.204Z,4.18
2023-05-19T03:26:00.369Z,2.90
2023-05-19T03:28:31.813Z,3.20
2023-05-19T03:30:58.776Z,4.03
2023-05-19T03:33:25.778Z,4.28
2023-05-19T03:35:53.341Z,3.60
2023-05-19T03:38:20.316Z,3.58
2023-05-19T03:40:47.248Z,4.28
2023-05-19T03:43:14.741Z,3.90
2023-05-19T03:45:41.742Z,2.97
2023-05-19T03:48:08.724Z,2.78
2023-05-19T03:50:37.550Z,3.22
2023-05-19T03:53:07.472Z,4.03
2023-05-19T03:55:42.303Z,4.20
2023-05-19T03:58:10.969Z,4.13
2023-05-19T04:00:38.187Z,3.10
2023-05-19T04:03:05.069Z,3.05
2023-05-19T04:05:32.103Z,2.95
2023-05-19T04:08:02.323Z,2.97
2023-05-19T04:10:37.058Z,3.13
2023-05-19T04:13:03.951Z,4.07
2023-05-19T04:15:33.534Z,3.30
2023-05-19T04:18:03.967Z,3.40
2023-05-19T04:20:31.336Z,3.17
2023-05-19T04:22:58.567Z,3.90
2023-05-19T04:25:28.579Z,3.85
2023-05-19T04:27:58.241Z,3.60
2023-05-19T04:30:25.619Z,3.60
2023-05-19T04:32:52.756Z,3.10
2023-05-19T04:35:20.092Z,3.75
2023-05-19T04:37:47.159Z,3.75
2023-05-19T04:40:14.504Z,4.10
2023-05-19T04:42:43.160Z,3.65
2023-05-19T04:45:10.751Z,4.25
2023-05-19T04:47:40.616Z,3.83
2023-05-19T04:50:08.224Z,4.10
2023-05-19T04:52:35.190Z,3.70
2023-05-19T04:55:10.611Z,3.75
2023-05-19T04:57:41.973Z,3.78
2023-05-19T05:00:13.107Z,4.40
2023-05-19T05:02:43.448Z,3.92
2023-05-19T05:05:10.616Z,4.15
2023-05-19T05:07:42.494Z,3.92
2023-05-19T05:10:14.637Z,3.83
2023-05-19T05:12:42.012Z,4.10
2023-05-19T05:15:09.660Z,3.72
2023-05-19T05:17:38.031Z,4.20
2023-05-19T05:20:09.778Z,3.90
2023-05-19T05:22:36.908Z,3.92
2023-05-19T05:25:04.821Z,4.03
2023-05-19T05:27:32.947Z,4.38
2023-05-19T05:30:02.149Z,4.40
2023-05-19T05:32:29.330Z,4.60
2023-05-19T05:35:03.608Z,4.15
2023-05-19T05:37:31.202Z,4.05
2023-05-19T05:40:03.617Z,4.50
2023-05-19T05:44:57.497Z,3.95
2023-05-19T05:47:24.671Z,4.13
2023-05-19T05:49:53.582Z,3.45
2023-05-19T05:52:22.572Z,4.70
2023-05-19T05:54:51.119Z,4.43
2023-05-19T05:57:18.425Z,4.50
2023-05-19T05:59:47.364Z,4.03
2023-05-19T06:02:14.573Z,4.15
2023-05-19T06:04:42.132Z,3.83
2023-05-19T06:07:09.183Z,4.63
2023-05-19T06:09:36.435Z,4.57
2023-05-19T06:12:03.517Z,4.72
2023-05-19T06:14:30.654Z,4.43
2023-05-19T06:16:57.714Z,3.65
2023-05-19T06:19:25.734Z,4.75
2023-05-19T06:21:52.797Z,4.95
2023-05-19T06:24:19.814Z,5.00
2023-05-19T06:26:46.870Z,4.80
2023-05-19T06:29:13.736Z,5.30
2023-05-19T06:31:50.127Z,5.28
2023-05-19T06:34:21.366Z,4.78
2023-05-19T06:36:48.528Z,5.10
2023-05-19T06:39:20.261Z,5.80
2023-05-19T06:41:47.206Z,5.10
2023-05-19T06:44:15.313Z,4.32
2023-05-19T06:46:42.721Z,5.03
2023-05-19T06:49:15.991Z,3.90
2023-05-19T06:51:50.797Z,4.32
2023-05-19T06:54:19.381Z,5.75
2023-05-19T06:56:49.111Z,4.70
2023-05-19T06:59:16.577Z,4.05
2023-05-19T07:01:43.559Z,5.25
2023-05-19T07:04:10.697Z,5.40
2023-05-19T07:06:40.003Z,5.57
2023-05-19T07:09:12.861Z,5.85
2023-05-19T07:11:42.684Z,5.13
2023-05-19T07:14:09.566Z,3.63
2023-05-19T07:16:36.871Z,4.32
2023-05-19T07:19:03.827Z,5.60
2023-05-19T07:21:34.030Z,5.13
2023-05-19T07:24:01.030Z,6.38
2023-05-19T07:26:28.441Z,3.53
2023-05-19T07:28:55.438Z,5.90
2023-05-19T07:31:22.282Z,6.00
2023-05-19T07:33:49.134Z,5.88
2023-05-19T07:36:16.126Z,4.07
2023-05-19T07:38:44.687Z,3.90
2023-05-19T07:41:19.959Z,4.40
2023-05-19T07:43:52.134Z,3.53
2023-05-19T07:46:20.978Z,4.35
2023-05-19T07:48:49.213Z,5.88
2023-05-19T07:51:16.485Z,4.53
2023-05-19T07:53:43.325Z,4.70
2023-05-19T07:56:10.234Z,4.45
2023-05-19T07:58:37.112Z,6.25
2023-05-19T08:01:04.164Z,6.60
2023-05-19T08:03:31.370Z,4.30
2023-05-19T08:05:58.744Z,6.13
2023-05-19T08:08:28.919Z,4.95
2023-05-19T08:10:55.889Z,4.47
2023-05-19T08:13:25.723Z,4.40
2023-05-19T08:15:54.666Z,3.92
2023-05-19T08:18:24.597Z,4.18
2023-05-19T08:20:51.418Z,3.88
2023-05-19T08:23:19.920Z,4.55
2023-05-19T08:25:46.845Z,5.57
2023-05-19T08:28:13.836Z,6.25
2023-05-19T08:30:40.831Z,4.28
2023-05-19T08:33:08.848Z,4.65
2023-05-19T08:35:35.852Z,5.32
2023-05-19T08:38:05.248Z,6.00
2023-05-19T08:40:35.356Z,6.07
2023-05-19T08:43:02.989Z,6.03
2023-05-19T08:45:34.401Z,6.60
2023-05-19T08:48:04.747Z,5.28
2023-05-19T08:50:36.759Z,5.57
2023-05-19T08:53:32.460Z,4.72
2023-05-19T08:56:16.799Z,3.95
2023-05-19T08:58:46.232Z,4.60
2023-05-19T09:01:17.220Z,4.05
2023-05-19T09:03:51.445Z,4.97
2023-05-19T09:06:18.427Z,4.60
2023-05-19T09:08:45.457Z,3.90
2023-05-19T09:11:12.605Z,4.07
2023-05-19T09:13:44.173Z,4.00
2023-05-19T09:16:12.099Z,5.13
2023-05-19T09:18:57.224Z,4.50
2023-05-19T09:21:33.321Z,4.13
2023-05-19T09:24:08.664Z,3.55
2023-05-19T09:26:43.398Z,4.10
2023-05-19T09:29:14.866Z,4.70
2023-05-19T09:31:52.027Z,4.30
2023-05-19T09:34:19.657Z,4.00
2023-05-19T09:36:49.902Z,4.82
2023-05-19T09:39:17.749Z,3.75
2023-05-19T09:41:47.642Z,4.10
2023-05-19T09:44:20.956Z,4.38
2023-05-19T09:46:52.094Z,3.92
2023-05-19T09:49:24.165Z,3.80
2023-05-19T09:52:13.119Z,3.67
2023-05-19T09:54:45.583Z,3.60
2023-05-19T09:57:13.034Z,4.75
2023-05-19T09:59:41.300Z,4.28
2023-05-19T10:02:17.838Z,3.90
2023-05-19T10:04:46.715Z,4.10
2023-05-19T10:07:16.312Z,5.28
2023-05-19T10:09:45.208Z,4.65
2023-05-19T10:12:20.540Z,4.13
2023-05-19T10:14:49.202Z,3.70
2023-05-19T10:17:19.060Z,3.58
2023-05-19T10:19:51.872Z,3.60
2023-05-19T10:24:47.458Z,3.90
2023-05-19T10:27:15.693Z,3.88
2023-05-19T10:29:49.502Z,3.67
2023-05-19T10:32:25.620Z,4.70
2023-05-19T10:35:32.003Z,4.90
2023-05-19T10:38:21.577Z,4.13
2023-05-19T10:41:15.185Z,3.90
2023-05-19T10:43:50.013Z,3.92
2023-05-19T10:46:16.996Z,3.72
2023-05-19T10:48:47.268Z,3.63
2023-05-19T10:51:31.688Z,3.92
2023-05-19T10:53:59.244Z,3.40
2023-05-19T10:56:36.575Z,3.63
2023-05-19T10:59:04.074Z,3.92
2023-05-19T11:01:35.497Z,3.40
2023-05-19T11:04:15.993Z,3.57
2023-05-19T11:07:02.173Z,4.07
2023-05-19T11:09:39.922Z,3.22
2023-05-19T11:12:11.378Z,3.67
2023-05-19T11:14:41.463Z,3.60
2023-05-19T11:17:14.794Z,3.22
2023-05-19T11:19:56.766Z,3.60
2023-05-19T11:22:26.234Z,3.53
2023-05-19T11:24:56.824Z,3.25
2023-05-19T11:27:31.909Z,2.92
2023-05-19T11:30:02.370Z,3.13
2023-05-19T11:32:36.090Z,2.72
2023-05-19T11:35:03.671Z,3.42
2023-05-19T11:37:40.762Z,2.63
2023-05-19T11:40:09.063Z,3.47
2023-05-19T11:42:39.258Z,2.95
2023-05-19T11:45:06.804Z,2.72
2023-05-19T11:47:46.474Z,3.25
2023-05-19T11:50:22.430Z,2.80
2023-05-19T11:53:07.728Z,3.05
2023-05-19T11:55:35.224Z,2.72
2023-05-19T11:58:13.549Z,2.53
2023-05-19T12:00:41.801Z,2.85
2023-05-19T12:03:14.307Z,2.60
2023-05-19T12:05:48.225Z,2.50
2023-05-19T12:08:18.875Z,2.30
2023-05-19T12:10:52.698Z,2.92
2023-05-19T12:13:23.768Z,2.90
2023-05-19T12:15:54.133Z,2.30
2023-05-19T12:18:21.803Z,2.58
2023-05-19T12:20:49.117Z,2.67
2023-05-19T12:23:32.644Z,2.20
2023-05-19T12:26:03.502Z,2.15
2023-05-19T12:28:34.256Z,2.30
2023-05-19T12:31:03.181Z,2.35
2023-05-19T12:33:33.666Z,2.30
2023-05-19T12:41:17.684Z,2.20
2023-05-19T12:43:47.636Z,2.60
2023-05-19T12:46:16.997Z,2.28
2023-05-19T12:48:47.883Z,2.63
2023-05-19T12:51:19.367Z,2.20
2023-05-19T12:53:47.688Z,2.50
2023-05-19T12:56:16.125Z,2.20
2023-05-19T12:58:43.813Z,2.10
2023-05-19T13:01:18.763Z,1.90
2023-05-19T13:03:46.387Z,2.33
2023-05-19T13:06:15.622Z,2.00
2023-05-19T13:08:42.519Z,2.13
2023-05-19T13:11:09.467Z,2.20
2023-05-19T13:13:42.204Z,2.35
2023-05-19T13:16:09.232Z,1.88
2023-05-19T13:18:37.870Z,2.20
2023-05-19T13:21:06.024Z,2.42
2023-05-19T13:23:32.888Z,2.33
2023-05-19T13:26:00.211Z,2.13
2023-05-19T13:28:27.182Z,1.80
2023-05-19T13:30:54.866Z,2.20
2023-05-19T13:33:22.032Z,2.25
2023-05-19T13:35:49.602Z,2.10
2023-05-19T13:38:16.543Z,2.78
2023-05-19T13:40:49.385Z,2.50
2023-05-19T13:43:16.826Z,2.67
2023-05-19T13:45:46.156Z,2.42
2023-05-19T13:48:13.550Z,2.63
2023-05-19T13:50:40.487Z,2.72
2023-05-19T13:53:07.450Z,2.90
2023-05-19T13:55:34.482Z,2.45
2023-05-19T13:58:04.346Z,2.05
2023-05-19T14:00:36.337Z,2.35
2023-05-19T14:03:03.996Z,2.38
2023-05-19T14:05:31.677Z,2.20
2023-05-19T14:08:00.767Z,1.92
2023-05-19T14:10:38.048Z,2.10
2023-05-19T14:13:30.403Z,1.80
2023-05-19T14:15:55.414Z,2.03
2023-05-19T14:18:22.368Z,2.03
2023-05-19T14:20:49.765Z,1.77
2023-05-19T14:23:25.147Z,1.90
2023-05-19T14:25:56.236Z,1.75
2023-05-19T14:28:23.321Z,1.92
2023-05-19T14:30:51.395Z,1.77
2023-05-19T14:33:19.746Z,2.03
2023-05-19T14:35:47.765Z,1.80
2023-05-19T14:38:14.780Z,1.60
2023-05-19T14:40:44.356Z,1.85
2023-05-19T14:43:11.931Z,1.80
2023-05-19T14:45:40.501Z,1.73
2023-05-19T14:48:13.924Z,1.90
2023-05-19T14:50:46.157Z,1.70
2023-05-19T14:53:15.416Z,2.10
2023-05-19T14:55:42.957Z,1.77
2023-05-19T14:58:26.866Z,1.65
2023-05-19T15:00:55.209Z,1.58
2023-05-19T15:03:23.442Z,1.70
2023-05-19T15:05:50.452Z,1.63
2023-05-19T15:08:18.118Z,1.58
2023-05-19T15:10:49.440Z,1.80
2023-05-19T15:13:19.341Z,1.88
2023-05-19T15:15:46.449Z,1.58
2023-05-19T15:18:19.477Z,1.60
2023-05-19T15:20:47.311Z,1.63
2023-05-19T15:23:15.311Z,1.60
2023-05-19T15:25:43.483Z,2.00
2023-05-19T15:28:10.874Z,1.77
2023-05-19T15:30:38.484Z,2.13
2023-05-19T15:33:08.684Z,1.70
2023-05-19T15:35:38.828Z,1.70
2023-05-19T15:38:08.637Z,1.70
2023-05-19T15:40:36.365Z,2.00
2023-05-19T15:43:04.414Z,1.70
2023-05-19T15:45:36.544Z,1.73
2023-05-19T15:48:04.749Z,1.75
2023-05-19T15:50:32.205Z,1.80
2023-05-19T15:52:59.725Z,1.70
2023-05-19T15:55:26.655Z,1.92
2023-05-19T15:58:00.817Z,2.15
2023-05-19T16:00:30.729Z,1.60
2023-05-19T16:02:58.103Z,1.77
2023-05-19T16:05:26.843Z,1.90
2023-05-19T16:07:55.055Z,2.25
2023-05-19T16:10:22.184Z,2.13
2023-05-19T16:12:49.139Z,2.05
2023-05-19T16:15:21.765Z,2.00
2023-05-19T16:17:53.042Z,2.10
2023-05-19T16:20:26.713Z,2.08
2023-05-19T16:22:58.475Z,1.80
2023-05-19T16:25:25.338Z,1.90
2023-05-19T16:27:53.265Z,1.90
2023-05-19T16:30:26.718Z,1.80
2023-05-19T16:32:56.279Z,1.77
2023-05-19T16:35:23.639Z,2.03
2023-05-19T16:37:50.933Z,1.85
2023-05-19T16:40:19.401Z,1.80
2023-05-19T16:42:53.114Z,2.08
2023-05-19T16:45:20.546Z,2.00
2023-05-19T16:47:47.601Z,2.38
2023-05-19T16:50:14.679Z,1.73
2023-05-19T16:52:41.657Z,1.90
2023-05-19T16:55:08.951Z,2.33
2023-05-19T16:57:36.230Z,1.90
2023-05-19T17:02:56.858Z,2.00
2023-05-19T17:05:23.911Z,1.80
2023-05-19T17:07:53.385Z,2.35
2023-05-19T17:10:22.921Z,1.95
2023-05-19T17:12:49.813Z,2.33
2023-05-19T17:15:20.862Z,1.80
2023-05-19T17:17:52.495Z,2.15
2023-05-19T17:20:19.505Z,2.25
2023-05-19T17:22:51.414Z,2.38
2023-05-19T17:25:19.437Z,2.00
2023-05-19T17:27:46.433Z,2.50
2023-05-19T17:30:15.829Z,2.00
2023-05-19T17:32:43.953Z,2.00
2023-05-19T17:35:13.809Z,2.05
2023-05-19T17:37:45.953Z,2.58
2023-05-19T17:40:16.781Z,2.78
2023-05-19T17:42:53.866Z,2.03
2023-05-19T17:45:24.088Z,2.05
2023-05-19T17:47:51.099Z,2.50
2023-05-19T17:50:21.388Z,2.83
2023-05-19T17:52:50.484Z,2.47
2023-05-19T17:55:18.303Z,2.00
2023-05-19T17:57:46.830Z,2.22
2023-05-19T18:00:23.279Z,2.20
2023-05-19T18:02:57.370Z,2.88
2023-05-19T18:05:26.002Z,2.35
2023-05-19T18:07:59.036Z,3.05
2023-05-19T18:10:30.299Z,3.67
2023-05-19T18:12:58.772Z,3.00
2023-05-19T18:15:28.762Z,2.50
2023-05-19T18:17:55.929Z,2.50
2023-05-19T18:20:22.832Z,3.05
2023-05-19T18:22:53.059Z,2.60
2023-05-19T18:25:21.541Z,3.00
2023-05-19T18:27:48.960Z,3.00
2023-05-19T18:30:20.743Z,2.92
2023-05-19T18:32:58.746Z,2.55
2023-05-19T18:35:27.088Z,3.10
2023-05-19T18:38:07.913Z,2.60
2023-05-19T18:40:44.744Z,2.60
2023-05-19T18:43:15.002Z,2.72
2023-05-19T18:45:42.387Z,2.72
2023-05-19T18:48:09.454Z,2.70
2023-05-19T18:50:41.061Z,2.47
2023-05-19T18:53:11.273Z,2.70
2023-05-19T18:55:38.754Z,2.67
2023-05-19T18:58:06.437Z,2.78
2023-05-19T19:00:37.631Z,2.88
2023-05-19T19:03:07.832Z,2.42
2023-05-19T19:05:45.050Z,2.95
2023-05-19T19:08:12.191Z,2.90
2023-05-19T19:10:41.036Z,2.67
2023-05-19T19:13:14.018Z,3.75
2023-05-19T19:15:41.862Z,4.18
2023-05-19T19:18:10.447Z,3.80
2023-05-19T19:20:37.486Z,4.00
2023-05-19T19:23:11.021Z,4.15
2023-05-19T19:25:44.377Z,5.28
2023-05-19T19:28:12.118Z,4.20
2023-05-19T19:30:42.167Z,4.10
2023-05-19T19:33:09.339Z,4.68
2023-05-19T19:35:36.229Z,3.67
2023-05-19T19:38:03.254Z,3.72
2023-05-19T19:40:30.164Z,4.57
2023-05-19T19:42:58.915Z,5.03
2023-05-19T19:45:30.920Z,4.82
2023-05-19T19:47:58.773Z,4.55
2023-05-19T19:50:29.976Z,4.85
2023-05-19T19:53:02.587Z,4.47
2023-05-19T19:55:33.438Z,5.50
2023-05-19T19:58:00.452Z,4.38
2023-05-19T20:00:27.373Z,4.93
2023-05-19T20:03:03.445Z,5.20
2023-05-19T20:05:34.797Z,4.60
2023-05-19T20:08:01.880Z,3.55
2023-05-19T20:10:28.914Z,4.38
2023-05-19T20:12:59.833Z,4.50
2023-05-19T20:15:27.014Z,4.82
2023-05-19T20:17:54.564Z,4.10
2023-05-19T20:20:26.392Z,4.80
2023-05-19T20:22:53.822Z,4.40
2023-05-19T20:25:22.878Z,5.15
2023-05-19T20:27:49.840Z,4.63
2023-05-19T20:30:16.997Z,4.32
2023-05-19T20:32:44.272Z,4.20
2023-05-19T20:35:15.283Z,4.05
2023-05-19T20:37:46.828Z,4.47
2023-05-19T20:40:14.077Z,4.13
2023-05-19T20:42:47.975Z,5.05
2023-05-19T20:45:14.923Z,4.10
2023-05-19T20:47:42.034Z,4.10
2023-05-19T20:50:09.323Z,3.90
2023-05-19T20:52:36.353Z,4.13
2023-05-19T20:55:03.609Z,4.07
2023-05-19T20:57:30.826Z,4.50
2023-05-19T20:59:57.694Z,4.00
2023-05-19T21:02:24.809Z,4.60
2023-05-19T21:04:52.873Z,4.72
2023-05-19T21:07:23.367Z,3.80
2023-05-19T21:09:51.827Z,4.20
2023-05-19T21:12:20.566Z,4.20
2023-05-19T21:14:48.996Z,3.97
2023-05-19T21:17:16.303Z,4.30
2023-05-19T21:19:43.325Z,4.85
2023-05-19T21:22:14.176Z,4.43
2023-05-19T21:24:41.351Z,4.25
2023-05-19T21:27:09.004Z,4.72
2023-05-19T21:29:36.256Z,4.78
2023-05-19T21:32:03.315Z,4.60
2023-05-19T21:34:30.297Z,5.30
2023-05-19T21:36:58.312Z,4.85
2023-05-19T21:39:28.308Z,5.30
2023-05-19T21:42:06.866Z,5.30
2023-05-19T21:44:34.249Z,5.70
2023-05-19T21:47:01.591Z,6.32
2023-05-19T21:49:43.024Z,6.85
2023-05-19T21:52:23.827Z,6.65
2023-05-19T21:54:52.256Z,6.55
2023-05-19T21:57:19.424Z,6.35
2023-05-19T21:59:46.621Z,6.25
2023-05-19T22:02:13.954Z,6.45
2023-05-19T22:04:44.999Z,6.13
2023-05-19T22:07:11.938Z,4.50
2023-05-19T22:09:39.676Z,6.40
2023-05-19T22:12:07.430Z,6.95
2023-05-19T22:14:38.634Z,6.45
2023-05-19T22:17:05.847Z,6.82
2023-05-19T22:19:32.854Z,6.55
2023-05-19T22:22:10.216Z,6.50
2023-05-19T22:24:43.400Z,6.80
2023-05-19T22:27:13.527Z,7.05
2023-05-19T22:29:47.096Z,6.90
2023-05-19T22:32:22.362Z,7.40
2023-05-19T22:34:49.381Z,6.90
2023-05-19T22:37:22.714Z,7.20
2023-05-19T22:39:49.756Z,6.97
2023-05-19T22:42:16.809Z,7.32
2023-05-19T22:44:43.805Z,7.22
2023-05-19T22:47:14.001Z,7.28
2023-05-19T22:49:42.567Z,7.55
2023-05-19T22:52:11.067Z,6.82
2023-05-19T22:54:38.516Z,7.75
2023-05-19T22:57:11.625Z,6.80
2023-05-19T22:59:41.689Z,7.30
2023-05-19T23:02:10.012Z,7.30
2023-05-19T23:04:39.014Z,5.72
2023-05-19T23:07:10.267Z,6.88
2023-05-19T23:09:43.281Z,6.82
2023-05-19T23:12:13.125Z,6.45
2023-05-19T23:14:40.185Z,7.45
2023-05-19T23:17:11.149Z,7.07
2023-05-19T23:19:41.789Z,6.68
2023-05-19T23:22:11.917Z,7.45
2023-05-19T23:24:38.920Z,7.05
2023-05-19T23:27:06.945Z,8.50
2023-05-19T23:29:35.409Z,8.13
2023-05-19T23:32:02.480Z,8.00
2023-05-19T23:34:29.611Z,7.90
2023-05-19T23:37:01.304Z,8.63
2023-05-19T23:39:28.165Z,9.07
2023-05-19T23:41:55.124Z,7.70
2023-05-19T23:44:23.973Z,7.72
2023-05-19T23:46:51.124Z,8.73
2023-05-19T23:49:18.092Z,8.80
2023-05-19T23:51:45.157Z,7.68
2023-05-19T23:54:14.909Z,8.73
2023-05-19T23:56:42.090Z,9.93
2023-05-19T23:59:13.525Z,9.20
